sensor_id;sensor_type;location;lat;lon;timestamp;pressure;altitude;pressure_sealevel;temperature;humidity
4398;BME280;2213;49.720;7.296;2023-04-07T00:00:18;98035.03;;;8.01;100.00
4398;BME280;2213;49.720;7.296;2023-04-07T00:02:48;98042.84;;;8.01;100.00
4398;BME280;2213;49.720;7.296;2023-04-07T00:05:17;98041.19;;;8.00;100.00
4398;BME280;2213;49.720;7.296;2023-04-07T00:07:48;98042.19;;;7.99;100.00
4398;BME280;2213;49.720;7.296;2023-04-07T00:10:23;98041.19;;;8.00;100.00
4398;BME280;2213;49.720;7.296;2023-04-07T00:12:52;98029.34;;;7.97;100.00
4398;BME280;2213;49.720;7.296;2023-04-07T00:15:21;98028.69;;;7.95;100.00
4398;BME280;2213;49.720;7.296;2023-04-07T00:17:51;98027.88;;;7.95;100.00
4398;BME280;2213;49.720;7.296;2023-04-07T00:20:21;98023.00;;;7.92;100.00
4398;BME280;2213;49.720;7.296;2023-04-07T00:22:52;98019.78;;;7.90;100.00
4398;BME280;2213;49.720;7.296;2023-04-07T00:25:21;98012.94;;;7.89;100.00
4398;BME280;2213;49.720;7.296;2023-04-07T00:27:51;98015.88;;;7.86;100.00
4398;BME280;2213;49.720;7.296;2023-04-07T00:30:22;98010.88;;;7.84;100.00
4398;BME280;2213;49.720;7.296;2023-04-07T00:32:52;98014.78;;;7.80;100.00
4398;BME280;2213;49.720;7.296;2023-04-07T00:35:22;98013.31;;;7.78;100.00
4398;BME280;2213;49.720;7.296;2023-04-07T00:37:54;98009.13;;;7.77;100.00
4398;BME280;2213;49.720;7.296;2023-04-07T00:40:24;98002.44;;;7.74;100.00
4398;BME280;2213;49.720;7.296;2023-04-07T00:42:53;97995.78;;;7.72;100.00
4398;BME280;2213;49.720;7.296;2023-04-07T00:45:22;97992.91;;;7.67;100.00
4398;BME280;2213;49.720;7.296;2023-04-07T00:47:52;97990.28;;;7.67;100.00
4398;BME280;2213;49.720;7.296;2023-04-07T00:50:24;97986.06;;;7.66;100.00
4398;BME280;2213;49.720;7.296;2023-04-07T00:52:56;97984.44;;;7.65;100.00
4398;BME280;2213;49.720;7.296;2023-04-07T00:55:26;97983.81;;;7.63;100.00
4398;BME280;2213;49.720;7.296;2023-04-07T00:57:57;97973.75;;;7.59;100.00
4398;BME280;2213;49.720;7.296;2023-04-07T01:00:27;97973.41;;;7.54;100.00
4398;BME280;2213;49.720;7.296;2023-04-07T01:03:03;97969.38;;;7.52;100.00
4398;BME280;2213;49.720;7.296;2023-04-07T01:05:41;97961.72;;;7.50;100.00
4398;BME280;2213;49.720;7.296;2023-04-07T01:08:20;97962.06;;;7.47;100.00
4398;BME280;2213;49.720;7.296;2023-04-07T01:11:02;97965.97;;;7.43;100.00
4398;BME280;2213;49.720;7.296;2023-04-07T01:13:39;97955.78;;;7.42;100.00
4398;BME280;2213;49.720;7.296;2023-04-07T01:16:16;97959.34;;;7.41;100.00
4398;BME280;2213;49.720;7.296;2023-04-07T01:18:55;97957.91;;;7.38;100.00
4398;BME280;2213;49.720;7.296;2023-04-07T01:21:29;97965.03;;;7.36;100.00
4398;BME280;2213;49.720;7.296;2023-04-07T01:24:39;97959.34;;;7.33;100.00
4398;BME280;2213;49.720;7.296;2023-04-07T01:27:20;97951.75;;;7.31;100.00
4398;BME280;2213;49.720;7.296;2023-04-07T01:29:56;97948.31;;;7.31;100.00
4398;BME280;2213;49.720;7.296;2023-04-07T01:32:27;97951.75;;;7.31;100.00
4398;BME280;2213;49.720;7.296;2023-04-07T01:34:59;97954.16;;;7.33;100.00
4398;BME280;2213;49.720;7.296;2023-04-07T01:37:29;97957.41;;;7.35;100.00
4398;BME280;2213;49.720;7.296;2023-04-07T01:40:00;97959.22;;;7.34;100.00
4398;BME280;2213;49.720;7.296;2023-04-07T01:42:31;97961.63;;;7.36;100.00
4398;BME280;2213;49.720;7.296;2023-04-07T01:45:02;97958.06;;;7.37;100.00
4398;BME280;2213;49.720;7.296;2023-04-07T01:47:33;97952.69;;;7.38;100.00
4398;BME280;2213;49.720;7.296;2023-04-07T01:50:05;97955.09;;;7.40;100.00
4398;BME280;2213;49.720;7.296;2023-04-07T01:52:36;97954.13;;;7.41;100.00
4398;BME280;2213;49.720;7.296;2023-04-07T01:55:06;97948.78;;;7.42;100.00
4398;BME280;2213;49.720;7.296;2023-04-07T01:57:36;97939.97;;;7.43;100.00
4398;BME280;2213;49.720;7.296;2023-04-07T02:00:12;97948.44;;;7.45;100.00
4398;BME280;2213;49.720;7.296;2023-04-07T02:02:45;97948.44;;;7.45;100.00
4398;BME280;2213;49.720;7.296;2023-04-07T02:05:21;97946.81;;;7.44;100.00
4398;BME280;2213;49.720;7.296;2023-04-07T02:07:58;97944.84;;;7.46;100.00
4398;BME280;2213;49.720;7.296;2023-04-07T02:10:34;97945.66;;;7.47;100.00
4398;BME280;2213;49.720;7.296;2023-04-07T02:13:08;97939.63;;;7.46;100.00
4398;BME280;2213;49.720;7.296;2023-04-07T02:15:42;97934.44;;;7.46;100.00
4398;BME280;2213;49.720;7.296;2023-04-07T02:18:14;97938.03;;;7.45;100.00
4398;BME280;2213;49.720;7.296;2023-04-07T02:20:45;97938.03;;;7.45;100.00
4398;BME280;2213;49.720;7.296;2023-04-07T02:23:16;97943.22;;;7.45;100.00
4398;BME280;2213;49.720;7.296;2023-04-07T02:25:46;97937.69;;;7.48;100.00
4398;BME280;2213;49.720;7.296;2023-04-07T02:28:16;97937.69;;;7.48;100.00
4398;BME280;2213;49.720;7.296;2023-04-07T02:30:47;97935.72;;;7.50;100.00
4398;BME280;2213;49.720;7.296;2023-04-07T02:33:17;97927.91;;;7.50;100.00
4398;BME280;2213;49.720;7.296;2023-04-07T02:35:47;97937.34;;;7.51;100.00
4398;BME280;2213;49.720;7.296;2023-04-07T02:38:16;97925.31;;;7.50;100.00
4398;BME280;2213;49.720;7.296;2023-04-07T02:40:45;97926.31;;;7.49;100.00
4398;BME280;2213;49.720;7.296;2023-04-07T02:43:15;97928.72;;;7.51;100.00
4398;BME280;2213;49.720;7.296;2023-04-07T02:45:49;97925.31;;;7.50;100.00
4398;BME280;2213;49.720;7.296;2023-04-07T02:48:19;97919.13;;;7.51;100.00
4398;BME280;2213;49.720;7.296;2023-04-07T02:50:50;97919.94;;;7.52;100.00
4398;BME280;2213;49.720;7.296;2023-04-07T02:53:21;97918.97;;;7.53;100.00
4398;BME280;2213;49.720;7.296;2023-04-07T02:55:51;97914.56;;;7.53;100.00
4398;BME280;2213;49.720;7.296;2023-04-07T02:58:21;97917.00;;;7.55;100.00
4398;BME280;2213;49.720;7.296;2023-04-07T03:00:52;97910.97;;;7.54;100.00
4398;BME280;2213;49.720;7.296;2023-04-07T03:03:21;97914.25;;;7.56;100.00
4398;BME280;2213;49.720;7.296;2023-04-07T03:05:52;97917.63;;;7.57;100.00
4398;BME280;2213;49.720;7.296;2023-04-07T03:08:21;97916.50;;;7.59;100.00
4398;BME280;2213;49.720;7.296;2023-04-07T03:10:51;97916.50;;;7.59;100.00
4398;BME280;2213;49.720;7.296;2023-04-07T03:13:22;97918.28;;;7.59;100.00
4398;BME280;2213;49.720;7.296;2023-04-07T03:15:53;97910.28;;;7.60;100.00
4398;BME280;2213;49.720;7.296;2023-04-07T03:18:25;97915.50;;;7.60;100.00
4398;BME280;2213;49.720;7.296;2023-04-07T03:20:56;97912.88;;;7.60;100.00
4398;BME280;2213;49.720;7.296;2023-04-07T03:23:27;97911.91;;;7.62;100.00
4398;BME280;2213;49.720;7.296;2023-04-07T03:25:58;97904.94;;;7.62;100.00
4398;BME280;2213;49.720;7.296;2023-04-07T03:28:30;97911.75;;;7.63;100.00
4398;BME280;2213;49.720;7.296;2023-04-07T03:31:01;97909.94;;;7.64;100.00
4398;BME280;2213;49.720;7.296;2023-04-07T03:33:31;97902.94;;;7.64;100.00
4398;BME280;2213;49.720;7.296;2023-04-07T03:36:01;97905.56;;;7.64;100.00
4398;BME280;2213;49.720;7.296;2023-04-07T03:38:32;97901.16;;;7.65;100.00
4398;BME280;2213;49.720;7.296;2023-04-07T03:41:01;97899.53;;;7.64;100.00
4398;BME280;2213;49.720;7.296;2023-04-07T03:43:31;97894.16;;;7.65;100.00
4398;BME280;2213;49.720;7.296;2023-04-07T03:46:03;97900.19;;;7.66;100.00
4398;BME280;2213;49.720;7.296;2023-04-07T03:48:34;97894.97;;;7.66;100.00
4398;BME280;2213;49.720;7.296;2023-04-07T03:51:05;97894.16;;;7.65;100.00
4398;BME280;2213;49.720;7.296;2023-04-07T03:53:34;97897.59;;;7.66;100.00
4398;BME280;2213;49.720;7.296;2023-04-07T03:56:04;97889.59;;;7.67;100.00
4398;BME280;2213;49.720;7.296;2023-04-07T03:58:36;97892.03;;;7.69;100.00
4398;BME280;2213;49.720;7.296;2023-04-07T04:01:10;97892.03;;;7.69;100.00
4398;BME280;2213;49.720;7.296;2023-04-07T04:03:41;97897.88;;;7.71;100.00
4398;BME280;2213;49.720;7.296;2023-04-07T04:06:11;97893.47;;;7.71;100.00
4398;BME280;2213;49.720;7.296;2023-04-07T04:08:41;97902.09;;;7.72;100.00
4398;BME280;2213;49.720;7.296;2023-04-07T04:11:11;97903.72;;;7.73;100.00
4398;BME280;2213;49.720;7.296;2023-04-07T04:13:41;97898.53;;;7.73;100.00
4398;BME280;2213;49.720;7.296;2023-04-07T04:16:12;97907.97;;;7.74;100.00
4398;BME280;2213;49.720;7.296;2023-04-07T04:18:43;97909.56;;;7.75;100.00
4398;BME280;2213;49.720;7.296;2023-04-07T04:21:14;97913.16;;;7.74;100.00
4398;BME280;2213;49.720;7.296;2023-04-07T04:23:44;97914.13;;;7.73;100.00
4398;BME280;2213;49.720;7.296;2023-04-07T04:26:17;97916.75;;;7.73;100.00
4398;BME280;2213;49.720;7.296;2023-04-07T04:28:47;97915.75;;;7.74;100.00
4398;BME280;2213;49.720;7.296;2023-04-07T04:31:18;97916.53;;;7.74;100.00
4398;BME280;2213;49.720;7.296;2023-04-07T04:33:49;97915.75;;;7.74;100.00
4398;BME280;2213;49.720;7.296;2023-04-07T04:36:21;97920.97;;;7.74;100.00
4398;BME280;2213;49.720;7.296;2023-04-07T04:38:52;97917.38;;;7.75;100.00
4398;BME280;2213;49.720;7.296;2023-04-07T04:41:23;97926.97;;;7.74;100.00
4398;BME280;2213;49.720;7.296;2023-04-07T04:43:57;97926.19;;;7.74;100.00
4398;BME280;2213;49.720;7.296;2023-04-07T04:46:29;97931.38;;;7.74;100.00
4398;BME280;2213;49.720;7.296;2023-04-07T04:48:59;97920.16;;;7.73;100.00
4398;BME280;2213;49.720;7.296;2023-04-07T04:51:29;97926.81;;;7.76;100.00
4398;BME280;2213;49.720;7.296;2023-04-07T04:53:58;97919.00;;;7.76;100.00
4398;BME280;2213;49.720;7.296;2023-04-07T04:56:32;97925.16;;;7.75;100.00
4398;BME280;2213;49.720;7.296;2023-04-07T04:59:04;97927.78;;;7.75;100.00
4398;BME280;2213;49.720;7.296;2023-04-07T05:01:35;97922.56;;;7.75;100.00
4398;BME280;2213;49.720;7.296;2023-04-07T05:04:06;97935.44;;;7.76;100.00
4398;BME280;2213;49.720;7.296;2023-04-07T05:06:38;97940.63;;;7.76;100.00
4398;BME280;2213;49.720;7.296;2023-04-07T05:09:10;97938.84;;;7.77;100.00
4398;BME280;2213;49.720;7.296;2023-04-07T05:11:41;97941.44;;;7.77;100.00
4398;BME280;2213;49.720;7.296;2023-04-07T05:14:11;97942.25;;;7.77;100.00
4398;BME280;2213;49.720;7.296;2023-04-07T05:16:42;97941.44;;;7.77;100.00
4398;BME280;2213;49.720;7.296;2023-04-07T05:19:12;97937.84;;;7.78;100.00
4398;BME280;2213;49.720;7.296;2023-04-07T05:21:42;97937.84;;;7.78;100.00
4398;BME280;2213;49.720;7.296;2023-04-07T05:24:10;97939.47;;;7.79;100.00
4398;BME280;2213;49.720;7.296;2023-04-07T05:26:40;97938.66;;;7.78;100.00
4398;BME280;2213;49.720;7.296;2023-04-07T05:29:11;97939.47;;;7.79;100.00
4398;BME280;2213;49.720;7.296;2023-04-07T05:31:42;97942.72;;;7.81;100.00
4398;BME280;2213;49.720;7.296;2023-04-07T05:34:11;97937.53;;;7.81;100.00
4398;BME280;2213;49.720;7.296;2023-04-07T05:36:41;97937.53;;;7.81;100.00
4398;BME280;2213;49.720;7.296;2023-04-07T05:39:11;97946.94;;;7.82;100.00
4398;BME280;2213;49.720;7.296;2023-04-07T05:41:40;97944.31;;;7.82;100.00
4398;BME280;2213;49.720;7.296;2023-04-07T05:44:09;97944.16;;;7.83;100.00
4398;BME280;2213;49.720;7.296;2023-04-07T05:46:41;97951.97;;;7.83;100.00
4398;BME280;2213;49.720;7.296;2023-04-07T05:49:13;97954.38;;;7.85;100.00
4398;BME280;2213;49.720;7.296;2023-04-07T05:51:47;97952.59;;;7.85;100.00
4398;BME280;2213;49.720;7.296;2023-04-07T05:54:16;97950.81;;;7.86;100.00
4398;BME280;2213;49.720;7.296;2023-04-07T05:56:47;97949.84;;;7.87;100.00
4398;BME280;2213;49.720;7.296;2023-04-07T05:59:17;97948.88;;;7.88;100.00
4398;BME280;2213;49.720;7.296;2023-04-07T06:01:49;97955.66;;;7.89;100.00
4398;BME280;2213;49.720;7.296;2023-04-07T06:04:19;97953.06;;;7.89;100.00
4398;BME280;2213;49.720;7.296;2023-04-07T06:06:50;97954.69;;;7.90;100.00
4398;BME280;2213;49.720;7.296;2023-04-07T06:09:22;97961.53;;;7.91;100.00
4398;BME280;2213;49.720;7.296;2023-04-07T06:11:51;97955.31;;;7.92;100.00
4398;BME280;2213;49.720;7.296;2023-04-07T06:14:21;97960.53;;;7.92;100.00
4398;BME280;2213;49.720;7.296;2023-04-07T06:16:53;97954.34;;;7.93;100.00
4398;BME280;2213;49.720;7.296;2023-04-07T06:19:24;97956.13;;;7.92;100.00
4398;BME280;2213;49.720;7.296;2023-04-07T06:21:54;97960.38;;;7.93;100.00
4398;BME280;2213;49.720;7.296;2023-04-07T06:24:25;97962.78;;;7.95;100.00
4398;BME280;2213;49.720;7.296;2023-04-07T06:26:55;97965.22;;;7.96;100.00
4398;BME280;2213;49.720;7.296;2023-04-07T06:29:26;97960.84;;;7.97;100.00
4398;BME280;2213;49.720;7.296;2023-04-07T06:31:56;97961.47;;;7.99;100.00
4398;BME280;2213;49.720;7.296;2023-04-07T06:34:26;97965.69;;;8.00;100.00
4398;BME280;2213;49.720;7.296;2023-04-07T06:36:57;97957.72;;;8.01;100.00
4398;BME280;2213;49.720;7.296;2023-04-07T06:39:29;97961.13;;;8.02;100.00
4398;BME280;2213;49.720;7.296;2023-04-07T06:41:57;97963.56;;;8.03;100.00
4398;BME280;2213;49.720;7.296;2023-04-07T06:44:27;97959.78;;;8.06;100.00
4398;BME280;2213;49.720;7.296;2023-04-07T06:46:57;97974.28;;;8.08;100.00
4398;BME280;2213;49.720;7.296;2023-04-07T06:49:27;97971.31;;;8.12;100.00
4398;BME280;2213;49.720;7.296;2023-04-07T06:51:57;97963.31;;;8.13;100.00
4398;BME280;2213;49.720;7.296;2023-04-07T06:54:28;97969.81;;;8.17;100.00
4398;BME280;2213;49.720;7.296;2023-04-07T06:56:59;97972.25;;;8.19;100.00
4398;BME280;2213;49.720;7.296;2023-04-07T06:59:31;97971.09;;;8.21;100.00
4398;BME280;2213;49.720;7.296;2023-04-07T07:02:02;97972.38;;;8.25;100.00
4398;BME280;2213;49.720;7.296;2023-04-07T07:04:34;97976.28;;;8.29;100.00
4398;BME280;2213;49.720;7.296;2023-04-07T07:07:04;97969.09;;;8.31;100.00
4398;BME280;2213;49.720;7.296;2023-04-07T07:09:34;97975.75;;;8.34;100.00
4398;BME280;2213;49.720;7.296;2023-04-07T07:12:05;97980.59;;;8.37;100.00
4398;BME280;2213;49.720;7.296;2023-04-07T07:14:35;97973.25;;;8.40;100.00
4398;BME280;2213;49.720;7.296;2023-04-07T07:17:06;97972.25;;;8.41;100.00
4398;BME280;2213;49.720;7.296;2023-04-07T07:19:36;97966.88;;;8.43;100.00
4398;BME280;2213;49.720;7.296;2023-04-07T07:22:05;97974.34;;;8.46;100.00
4398;BME280;2213;49.720;7.296;2023-04-07T07:24:36;97974.00;;;8.49;100.00
4398;BME280;2213;49.720;7.296;2023-04-07T07:27:04;97973.66;;;8.52;100.00
4398;BME280;2213;49.720;7.296;2023-04-07T07:29:34;97976.88;;;8.54;100.00
4398;BME280;2213;49.720;7.296;2023-04-07T07:32:03;97976.53;;;8.57;100.00
4398;BME280;2213;49.720;7.296;2023-04-07T07:34:35;97970.53;;;8.56;100.00
4398;BME280;2213;49.720;7.296;2023-04-07T07:37:05;97981.41;;;8.60;100.00
4398;BME280;2213;49.720;7.296;2023-04-07T07:39:35;97976.66;;;8.64;100.00
4398;BME280;2213;49.720;7.296;2023-04-07T07:42:04;97977.09;;;8.67;100.00
4398;BME280;2213;49.720;7.296;2023-04-07T07:44:34;97974.31;;;8.69;100.00
4398;BME280;2213;49.720;7.296;2023-04-07T07:47:05;97983.91;;;8.68;100.00
4398;BME280;2213;49.720;7.296;2023-04-07T07:49:36;97983.56;;;8.71;100.00
4398;BME280;2213;49.720;7.296;2023-04-07T07:52:05;97993.00;;;8.72;100.00
4398;BME280;2213;49.720;7.296;2023-04-07T07:54:36;97989.22;;;8.75;100.00
4398;BME280;2213;49.720;7.296;2023-04-07T07:57:06;97996.06;;;8.76;100.00
4398;BME280;2213;49.720;7.296;2023-04-07T07:59:38;97990.50;;;8.79;100.00
4398;BME280;2213;49.720;7.296;2023-04-07T08:02:08;97998.16;;;8.80;100.00
4398;BME280;2213;49.720;7.296;2023-04-07T08:04:39;97999.97;;;8.80;100.00
4398;BME280;2213;49.720;7.296;2023-04-07T08:07:09;98000.56;;;8.82;100.00
4398;BME280;2213;49.720;7.296;2023-04-07T08:09:39;98004.66;;;8.84;100.00
4398;BME280;2213;49.720;7.296;2023-04-07T08:12:08;98004.47;;;8.86;100.00
4398;BME280;2213;49.720;7.296;2023-04-07T08:14:38;98005.09;;;8.88;100.00
4398;BME280;2213;49.720;7.296;2023-04-07T08:17:07;98007.72;;;8.88;100.00
4398;BME280;2213;49.720;7.296;2023-04-07T08:19:38;98010.94;;;8.90;100.00
4398;BME280;2213;49.720;7.296;2023-04-07T08:22:08;98017.44;;;8.94;100.00
4398;BME280;2213;49.720;7.296;2023-04-07T08:24:37;98012.84;;;8.96;100.00
4398;BME280;2213;49.720;7.296;2023-04-07T08:27:07;98018.88;;;8.96;100.00
4398;BME280;2213;49.720;7.296;2023-04-07T08:29:37;98020.50;;;8.97;100.00
4398;BME280;2213;49.720;7.296;2023-04-07T08:32:08;98024.38;;;9.01;100.00
4398;BME280;2213;49.720;7.296;2023-04-07T08:34:40;98017.38;;;9.02;100.00
4398;BME280;2213;49.720;7.296;2023-04-07T08:37:09;98025.44;;;9.07;100.00
4398;BME280;2213;49.720;7.296;2023-04-07T08:39:38;98024.47;;;9.08;100.00
4398;BME280;2213;49.720;7.296;2023-04-07T08:42:11;98032.75;;;9.12;100.00
4398;BME280;2213;49.720;7.296;2023-04-07T08:44:43;98028.81;;;9.16;100.00
4398;BME280;2213;49.720;7.296;2023-04-07T08:47:16;98026.00;;;9.17;100.00
4398;BME280;2213;49.720;7.296;2023-04-07T08:49:52;98030.84;;;9.20;100.00
4398;BME280;2213;49.720;7.296;2023-04-07T08:52:31;98040.97;;;9.23;100.00
4398;BME280;2213;49.720;7.296;2023-04-07T08:55:03;98038.97;;;9.25;100.00
4398;BME280;2213;49.720;7.296;2023-04-07T08:57:33;98037.34;;;9.24;100.00
4398;BME280;2213;49.720;7.296;2023-04-07T09:00:03;98032.78;;;9.26;100.00
4398;BME280;2213;49.720;7.296;2023-04-07T09:02:38;98037.44;;;9.31;100.00
4398;BME280;2213;49.720;7.296;2023-04-07T09:05:13;98033.31;;;9.36;100.00
4398;BME280;2213;49.720;7.296;2023-04-07T09:07:44;98035.56;;;9.39;100.00
4398;BME280;2213;49.720;7.296;2023-04-07T09:10:16;98041.69;;;9.46;100.00
4398;BME280;2213;49.720;7.296;2023-04-07T09:12:46;98052.00;;;9.54;100.00
4398;BME280;2213;49.720;7.296;2023-04-07T09:15:15;98048.41;;;9.55;100.00
4398;BME280;2213;49.720;7.296;2023-04-07T09:17:45;98052.91;;;9.61;100.00
4398;BME280;2213;49.720;7.296;2023-04-07T09:20:16;98047.53;;;9.63;100.00
4398;BME280;2213;49.720;7.296;2023-04-07T09:22:46;98043.81;;;9.72;100.00
4398;BME280;2213;49.720;7.296;2023-04-07T09:25:19;98045.72;;;9.78;100.00
4398;BME280;2213;49.720;7.296;2023-04-07T09:27:55;98046.53;;;9.79;100.00
4398;BME280;2213;49.720;7.296;2023-04-07T09:30:26;98053.13;;;9.75;100.00
4398;BME280;2213;49.720;7.296;2023-04-07T09:32:57;98045.53;;;9.80;100.00
4398;BME280;2213;49.720;7.296;2023-04-07T09:35:27;98045.34;;;9.81;100.00
4398;BME280;2213;49.720;7.296;2023-04-07T09:38:03;98044.19;;;9.84;100.00
4398;BME280;2213;49.720;7.296;2023-04-07T09:40:34;98048.41;;;9.85;100.00
4398;BME280;2213;49.720;7.296;2023-04-07T09:43:05;98047.41;;;9.86;100.00
4398;BME280;2213;49.720;7.296;2023-04-07T09:45:35;98052.81;;;9.84;100.00
4398;BME280;2213;49.720;7.296;2023-04-07T09:48:07;98057.06;;;9.85;100.00
4398;BME280;2213;49.720;7.296;2023-04-07T09:50:41;98056.25;;;9.85;100.00
4398;BME280;2213;49.720;7.296;2023-04-07T09:53:16;98053.06;;;9.89;100.00
4398;BME280;2213;49.720;7.296;2023-04-07T09:55:46;98057.16;;;9.92;100.00
4398;BME280;2213;49.720;7.296;2023-04-07T09:58:16;98055.97;;;9.94;100.00
4398;BME280;2213;49.720;7.296;2023-04-07T10:00:45;98056.78;;;9.95;100.00
4398;BME280;2213;49.720;7.296;2023-04-07T10:03:17;98056.56;;;9.96;100.00
4398;BME280;2213;49.720;7.296;2023-04-07T10:05:49;98056.25;;;9.99;100.00
4398;BME280;2213;49.720;7.296;2023-04-07T10:08:19;98054.06;;;10.03;100.00
4398;BME280;2213;49.720;7.296;2023-04-07T10:10:49;98066.13;;;10.04;100.00
4398;BME280;2213;49.720;7.296;2023-04-07T10:13:21;98062.88;;;10.02;100.00
4398;BME280;2213;49.720;7.296;2023-04-07T10:15:52;98059.75;;;10.06;100.00
4398;BME280;2213;49.720;7.296;2023-04-07T10:18:26;98066.19;;;10.10;100.00
4398;BME280;2213;49.720;7.296;2023-04-07T10:21:01;98070.25;;;10.13;100.00
4398;BME280;2213;49.720;7.296;2023-04-07T10:24:06;98063.41;;;10.12;100.00
4398;BME280;2213;49.720;7.296;2023-04-07T10:26:42;98070.59;;;10.10;100.00
4398;BME280;2213;49.720;7.296;2023-04-07T10:29:14;98074.59;;;10.06;100.00
4398;BME280;2213;49.720;7.296;2023-04-07T10:31:46;98070.59;;;10.10;100.00
4398;BME280;2213;49.720;7.296;2023-04-07T10:34:16;98072.22;;;10.11;100.00
4398;BME280;2213;49.720;7.296;2023-04-07T10:37:11;98077.47;;;10.11;100.00
4398;BME280;2213;49.720;7.296;2023-04-07T10:39:41;98080.06;;;10.11;100.00
4398;BME280;2213;49.720;7.296;2023-04-07T10:42:44;98081.69;;;10.12;100.00
4398;BME280;2213;49.720;7.296;2023-04-07T10:45:13;98076.47;;;10.12;100.00
4398;BME280;2213;49.720;7.296;2023-04-07T10:48:09;98077.13;;;10.14;100.00
4398;BME280;2213;49.720;7.296;2023-04-07T10:50:39;98083.00;;;10.16;100.00
4398;BME280;2213;49.720;7.296;2023-04-07T10:53:11;98081.00;;;10.18;100.00
4398;BME280;2213;49.720;7.296;2023-04-07T10:55:41;98084.03;;;10.22;100.00
4398;BME280;2213;49.720;7.296;2023-04-07T10:58:22;98085.31;;;10.26;100.00
4398;BME280;2213;49.720;7.296;2023-04-07T11:01:17;98090.16;;;10.29;100.00
4398;BME280;2213;49.720;7.296;2023-04-07T11:04:07;98081.34;;;10.30;100.00
4398;BME280;2213;49.720;7.296;2023-04-07T11:06:46;98084.19;;;10.35;100.00
4398;BME280;2213;49.720;7.296;2023-04-07T11:09:20;98082.66;;;10.40;100.00
4398;BME280;2213;49.720;7.296;2023-04-07T11:11:49;98079.41;;;10.38;100.00
4398;BME280;2213;49.720;7.296;2023-04-07T11:14:25;98087.25;;;10.38;100.00
4398;BME280;2213;49.720;7.296;2023-04-07T11:16:56;98082.03;;;10.38;100.00
4398;BME280;2213;49.720;7.296;2023-04-07T11:19:27;98088.69;;;10.41;100.00
4398;BME280;2213;49.720;7.296;2023-04-07T11:22:13;98081.03;;;10.39;100.00
4398;BME280;2213;49.720;7.296;2023-04-07T11:24:58;98080.66;;;10.42;100.00
4398;BME280;2213;49.720;7.296;2023-04-07T11:27:29;98090.75;;;10.45;100.00
4398;BME280;2213;49.720;7.296;2023-04-07T11:30:00;98092.81;;;10.50;100.00
4398;BME280;2213;49.720;7.296;2023-04-07T11:32:30;98086.75;;;10.49;100.00
4398;BME280;2213;49.720;7.296;2023-04-07T11:35:00;98087.03;;;10.54;100.00
4398;BME280;2213;49.720;7.296;2023-04-07T11:37:35;98094.50;;;10.57;100.00
4398;BME280;2213;49.720;7.296;2023-04-07T11:40:09;98092.13;;;10.63;100.00
4398;BME280;2213;49.720;7.296;2023-04-07T11:42:39;98092.13;;;10.63;100.00
4398;BME280;2213;49.720;7.296;2023-04-07T11:45:17;98088.69;;;10.62;100.00
4398;BME280;2213;49.720;7.296;2023-04-07T11:47:47;98085.91;;;10.64;100.00
4398;BME280;2213;49.720;7.296;2023-04-07T11:50:38;98092.00;;;10.71;100.00
4398;BME280;2213;49.720;7.296;2023-04-07T11:53:09;98085.41;;;10.75;100.00
4398;BME280;2213;49.720;7.296;2023-04-07T11:55:40;98096.13;;;10.80;100.00
4398;BME280;2213;49.720;7.296;2023-04-07T11:58:11;98092.44;;;10.74;100.00
4398;BME280;2213;49.720;7.296;2023-04-07T12:00:53;98095.38;;;10.86;100.00
4398;BME280;2213;49.720;7.296;2023-04-07T12:03:24;98097.63;;;10.89;100.00
4398;BME280;2213;49.720;7.296;2023-04-07T12:05:54;98103.72;;;10.96;100.00
4398;BME280;2213;49.720;7.296;2023-04-07T12:08:37;98095.28;;;11.00;100.00
4398;BME280;2213;49.720;7.296;2023-04-07T12:11:09;98097.13;;;11.00;100.00
4398;BME280;2213;49.720;7.296;2023-04-07T12:13:38;98099.75;;;11.00;100.00
4398;BME280;2213;49.720;7.296;2023-04-07T12:16:09;98103.16;;;11.00;100.00
4398;BME280;2213;49.720;7.296;2023-04-07T12:18:46;98099.53;;;11.01;100.00
4398;BME280;2213;49.720;7.296;2023-04-07T12:21:16;98106.41;;;11.02;100.00
4398;BME280;2213;49.720;7.296;2023-04-07T12:23:45;98103.41;;;11.05;100.00
4398;BME280;2213;49.720;7.296;2023-04-07T12:26:16;98102.09;;;10.95;100.00
4398;BME280;2213;49.720;7.296;2023-04-07T12:28:49;98110.56;;;10.97;100.00
4398;BME280;2213;49.720;7.296;2023-04-07T12:31:19;98109.78;;;10.96;100.00
4398;BME280;2213;49.720;7.296;2023-04-07T12:33:48;98114.63;;;10.99;100.00
4398;BME280;2213;49.720;7.296;2023-04-07T12:36:18;98108.38;;;11.00;100.00
4398;BME280;2213;49.720;7.296;2023-04-07T12:38:47;98103.97;;;11.01;100.00
4398;BME280;2213;49.720;7.296;2023-04-07T12:41:18;98104.41;;;11.04;100.00
4398;BME280;2213;49.720;7.296;2023-04-07T12:43:47;98111.06;;;11.07;100.00
4398;BME280;2213;49.720;7.296;2023-04-07T12:46:17;98111.88;;;11.07;100.00
4398;BME280;2213;49.720;7.296;2023-04-07T12:48:47;98101.03;;;11.10;100.00
4398;BME280;2213;49.720;7.296;2023-04-07T12:51:16;98107.06;;;11.11;100.00
4398;BME280;2213;49.720;7.296;2023-04-07T12:53:46;98101.09;;;11.17;100.00
4398;BME280;2213;49.720;7.296;2023-04-07T12:56:18;98102.94;;;11.23;100.00
4398;BME280;2213;49.720;7.296;2023-04-07T12:58:49;98099.94;;;11.26;100.00
4398;BME280;2213;49.720;7.296;2023-04-07T13:01:19;98096.13;;;11.29;100.00
4398;BME280;2213;49.720;7.296;2023-04-07T13:03:48;98099.19;;;11.32;100.00
4398;BME280;2213;49.720;7.296;2023-04-07T13:06:19;98100.81;;;11.33;100.00
4398;BME280;2213;49.720;7.296;2023-04-07T13:08:48;98111.41;;;11.25;100.00
4398;BME280;2213;49.720;7.296;2023-04-07T13:11:20;98117.91;;;11.08;100.00
4398;BME280;2213;49.720;7.296;2023-04-07T13:13:51;98114.63;;;10.99;100.00
4398;BME280;2213;49.720;7.296;2023-04-07T13:16:24;98117.63;;;10.96;100.00
4398;BME280;2213;49.720;7.296;2023-04-07T13:18:53;98123.84;;;10.95;100.00
4398;BME280;2213;49.720;7.296;2023-04-07T13:21:23;98123.03;;;10.95;100.00
4398;BME280;2213;49.720;7.296;2023-04-07T13:23:55;98123.03;;;10.95;100.00
4398;BME280;2213;49.720;7.296;2023-04-07T13:26:25;98126.03;;;10.92;100.00
4398;BME280;2213;49.720;7.296;2023-04-07T13:28:57;98123.41;;;10.92;100.00
4398;BME280;2213;49.720;7.296;2023-04-07T13:31:26;98122.78;;;10.90;100.00
4398;BME280;2213;49.720;7.296;2023-04-07T13:33:57;98127.81;;;10.91;100.00
4398;BME280;2213;49.720;7.296;2023-04-07T13:36:28;98124.78;;;10.88;100.00
4398;BME280;2213;49.720;7.296;2023-04-07T13:38:56;98135.06;;;10.89;100.00
4398;BME280;2213;49.720;7.296;2023-04-07T13:41:28;98124.97;;;10.86;100.00
4398;BME280;2213;49.720;7.296;2023-04-07T13:43:59;98123.78;;;10.89;100.00